sensor_id;sensor_type;location;lat;lon;timestamp;pressure;altitude;pressure_sealevel;temperature;humidity
28797;BME280;24974;54.444;18.560;2023-02-24T00:00:47;100206.88;;;9.61;57.83
28797;BME280;24974;54.444;18.560;2023-02-24T00:03:22;100209.81;;;10.35;56.14
28797;BME280;24974;54.444;18.560;2023-02-24T00:05:53;100215.19;;;10.18;56.13
28797;BME280;24974;54.444;18.560;2023-02-24T00:08:24;100212.31;;;10.14;56.94
28797;BME280;24974;54.444;18.560;2023-02-24T00:10:55;100204.31;;;10.35;56.46
28797;BME280;24974;54.444;18.560;2023-02-24T00:13:28;100196.16;;;10.13;56.77
28797;BME280;24974;54.444;18.560;2023-02-24T00:16:01;100202.34;;;9.87;57.41
28797;BME280;24974;54.444;18.560;2023-02-24T05:18:40;99908.03;;;9.81;61.22
28797;BME280;24974;54.444;18.560;2023-02-24T05:21:14;99906.75;;;9.79;60.90
28797;BME280;24974;54.444;18.560;2023-02-24T05:24:04;99906.72;;;9.53;61.72
28797;BME280;24974;54.444;18.560;2023-02-24T05:26:38;99913.09;;;9.14;62.62
28797;BME280;24974;54.444;18.560;2023-02-24T05:29:11;99905.78;;;8.83;63.63
28797;BME280;24974;54.444;18.560;2023-02-24T05:31:42;99900.28;;;9.49;61.64
28797;BME280;24974;54.444;18.560;2023-02-24T05:34:13;99891.88;;;10.06;60.49
28797;BME280;24974;54.444;18.560;2023-02-24T05:36:46;99896.41;;;9.93;61.00
28797;BME280;24974;54.444;18.560;2023-02-24T05:39:19;99894.66;;;9.80;61.10
28797;BME280;24974;54.444;18.560;2023-02-24T05:41:50;99899.75;;;9.21;62.26
28797;BME280;24974;54.444;18.560;2023-02-24T05:44:25;99910.13;;;8.84;63.40
28797;BME280;24974;54.444;18.560;2023-02-24T05:46:56;99899.03;;;8.98;62.97
28797;BME280;24974;54.444;18.560;2023-02-24T05:49:32;99902.34;;;9.26;62.03
28797;BME280;24974;54.444;18.560;2023-02-24T05:52:05;99899.75;;;9.30;62.08
28797;BME280;24974;54.444;18.560;2023-02-24T05:54:40;99901.56;;;8.77;62.72
28797;BME280;24974;54.444;18.560;2023-02-24T05:57:14;99892.50;;;8.68;63.78
28797;BME280;24974;54.444;18.560;2023-02-24T05:59:50;99892.28;;;9.04;62.19
28797;BME280;24974;54.444;18.560;2023-02-24T06:02:21;99901.88;;;8.76;62.94
28797;BME280;24974;54.444;18.560;2023-02-24T06:05:07;99901.09;;;8.84;62.38
28797;BME280;24974;54.444;18.560;2023-02-24T06:07:38;99887.06;;;8.85;62.67
28797;BME280;24974;54.444;18.560;2023-02-24T06:10:09;99889.63;;;9.73;59.86
28797;BME280;24974;54.444;18.560;2023-02-24T06:12:40;99892.97;;;9.18;61.42
28797;BME280;24974;54.444;18.560;2023-02-24T06:15:11;99896.56;;;7.95;63.82
28797;BME280;24974;54.444;18.560;2023-02-24T06:17:42;99884.47;;;8.80;62.41
28797;BME280;24974;54.444;18.560;2023-02-24T06:20:14;99882.66;;;9.15;60.63
28797;BME280;24974;54.444;18.560;2023-02-24T06:22:46;99878.75;;;9.08;60.52
28797;BME280;24974;54.444;18.560;2023-02-24T06:25:18;99881.81;;;9.06;60.33
28797;BME280;24974;54.444;18.560;2023-02-24T06:27:50;99878.25;;;9.06;59.96
28797;BME280;24974;54.444;18.560;2023-02-24T06:30:28;99876.66;;;9.13;59.97
28797;BME280;24974;54.444;18.560;2023-02-24T06:32:59;99880.75;;;8.67;61.81
28797;BME280;24974;54.444;18.560;2023-02-24T06:35:30;99889.03;;;8.00;62.99
28797;BME280;24974;54.444;18.560;2023-02-24T06:38:02;99887.16;;;8.63;62.08
28797;BME280;24974;54.444;18.560;2023-02-24T06:40:33;99878.75;;;9.08;60.27
28797;BME280;24974;54.444;18.560;2023-02-24T06:43:04;99892.19;;;8.16;62.72
28797;BME280;24974;54.444;18.560;2023-02-24T06:45:35;99885.34;;;7.60;63.03
28797;BME280;24974;54.444;18.560;2023-02-24T06:48:06;99878.88;;;8.23;61.12
28797;BME280;24974;54.444;18.560;2023-02-24T06:50:38;99874.03;;;8.20;61.14
28797;BME280;24974;54.444;18.560;2023-02-24T06:53:09;99870.13;;;8.12;61.07
28797;BME280;24974;54.444;18.560;2023-02-24T06:55:46;99873.97;;;8.11;60.65
28797;BME280;24974;54.444;18.560;2023-02-24T06:58:18;99861.97;;;7.99;61.04
28797;BME280;24974;54.444;18.560;2023-02-24T07:00:50;99872.59;;;8.23;60.02
28797;BME280;24974;54.444;18.560;2023-02-24T07:03:27;99870.03;;;7.37;62.01
28797;BME280;24974;54.444;18.560;2023-02-24T07:06:16;99875.63;;;7.32;61.81
28797;BME280;24974;54.444;18.560;2023-02-24T07:08:51;99871.78;;;7.19;60.77
28797;BME280;24974;54.444;18.560;2023-02-24T07:11:22;99851.19;;;7.35;60.35
28797;BME280;24974;54.444;18.560;2023-02-24T07:13:53;99857.94;;;8.19;58.00
28797;BME280;24974;54.444;18.560;2023-02-24T07:16:25;99849.38;;;7.67;59.51
28797;BME280;24974;54.444;18.560;2023-02-24T07:18:58;99856.91;;;7.11;59.74
28797;BME280;24974;54.444;18.560;2023-02-24T07:21:32;99854.09;;;7.16;59.62
28797;BME280;24974;54.444;18.560;2023-02-24T07:24:10;99851.16;;;7.49;58.29
28797;BME280;24974;54.444;18.560;2023-02-24T07:26:44;99847.59;;;7.26;58.07
28797;BME280;24974;54.444;18.560;2023-02-24T07:29:22;99854.69;;;7.13;57.79
28797;BME280;24974;54.444;18.560;2023-02-24T07:31:53;99853.78;;;7.54;57.56
28797;BME280;24974;54.444;18.560;2023-02-24T07:34:24;99856.78;;;7.30;57.77
28797;BME280;24974;54.444;18.560;2023-02-24T07:36:56;99847.59;;;7.26;56.50
28797;BME280;24974;54.444;18.560;2023-02-24T07:39:27;99844.94;;;7.21;56.44
28797;BME280;24974;54.444;18.560;2023-02-24T07:41:58;99847.75;;;7.88;55.30
28797;BME280;24974;54.444;18.560;2023-02-24T07:44:29;99846.50;;;7.94;54.50
28797;BME280;24974;54.444;18.560;2023-02-24T07:47:00;99846.22;;;6.73;56.89
28797;BME280;24974;54.444;18.560;2023-02-24T07:49:38;99836.84;;;7.29;55.29
28797;BME280;24974;54.444;18.560;2023-02-24T07:52:09;99839.38;;;6.90;55.90
28797;BME280;24974;54.444;18.560;2023-02-24T07:54:41;99838.47;;;6.53;56.34
28797;BME280;24974;54.444;18.560;2023-02-24T07:57:11;99838.31;;;6.17;56.69
28797;BME280;24974;54.444;18.560;2023-02-24T07:59:42;99835.41;;;6.96;55.54
28797;BME280;24974;54.444;18.560;2023-02-24T08:02:15;99834.34;;;6.42;56.00
28797;BME280;24974;54.444;18.560;2023-02-24T08:04:48;99830.41;;;7.12;54.26
28797;BME280;24974;54.444;18.560;2023-02-24T08:07:20;99837.31;;;6.82;54.52
28797;BME280;24974;54.444;18.560;2023-02-24T08:09:53;99838.38;;;6.44;55.64
28797;BME280;24974;54.444;18.560;2023-02-24T08:12:43;99837.31;;;6.82;55.40
28797;BME280;24974;54.444;18.560;2023-02-24T08:15:14;99834.09;;;5.78;56.28
28797;BME280;24974;54.444;18.560;2023-02-24T08:17:56;99836.91;;;7.02;53.15
28797;BME280;24974;54.444;18.560;2023-02-24T08:20:31;99833.81;;;6.54;53.61
28797;BME280;24974;54.444;18.560;2023-02-24T08:23:20;99828.72;;;7.02;51.51
28797;BME280;24974;54.444;18.560;2023-02-24T08:25:52;99820.63;;;7.33;50.78
28797;BME280;24974;54.444;18.560;2023-02-24T08:28:24;99826.63;;;6.71;52.51
28797;BME280;24974;54.444;18.560;2023-02-24T08:30:56;99824.38;;;6.73;51.17
28797;BME280;24974;54.444;18.560;2023-02-24T08:33:27;99835.03;;;5.69;52.16
28797;BME280;24974;54.444;18.560;2023-02-24T08:35:59;99823.31;;;6.75;50.61
28797;BME280;24974;54.444;18.560;2023-02-24T08:38:34;99813.41;;;6.51;50.24
28797;BME280;24974;54.444;18.560;2023-02-24T08:41:16;99807.28;;;7.76;47.65
28797;BME280;24974;54.444;18.560;2023-02-24T08:43:48;99797.06;;;8.22;46.38
28797;BME280;24974;54.444;18.560;2023-02-24T08:46:21;99808.34;;;7.22;47.12
28797;BME280;24974;54.444;18.560;2023-02-24T08:48:57;99807.41;;;7.26;47.50
28797;BME280;24974;54.444;18.560;2023-02-24T08:54:06;99788.22;;;7.40;47.96
28797;BME280;24974;54.444;18.560;2023-02-24T08:56:46;99786.59;;;6.67;50.18
28797;BME280;24974;54.444;18.560;2023-02-24T08:59:26;99780.03;;;7.04;48.44
28797;BME280;24974;54.444;18.560;2023-02-24T09:02:18;99786.47;;;6.86;48.77
28797;BME280;24974;54.444;18.560;2023-02-24T09:07:28;99779.13;;;7.09;47.98
28797;BME280;24974;54.444;18.560;2023-02-24T09:09:59;99784.50;;;7.00;48.16
28797;BME280;24974;54.444;18.560;2023-02-24T09:12:31;99769.44;;;7.25;47.87
28797;BME280;24974;54.444;18.560;2023-02-24T09:15:02;99780.72;;;7.10;47.34
28797;BME280;24974;54.444;18.560;2023-02-24T09:17:36;99764.34;;;7.10;47.94
28797;BME280;24974;54.444;18.560;2023-02-24T09:20:21;99770.00;;;7.36;47.72
28797;BME280;24974;54.444;18.560;2023-02-24T09:23:24;99757.28;;;6.95;48.22
28797;BME280;24974;54.444;18.560;2023-02-24T09:25:59;99758.69;;;7.51;47.13
28797;BME280;24974;54.444;18.560;2023-02-24T09:28:40;99776.84;;;7.24;48.03
28797;BME280;24974;54.444;18.560;2023-02-24T09:31:29;99775.63;;;6.81;48.50
28797;BME280;24974;54.444;18.560;2023-02-24T09:34:09;99752.97;;;6.80;49.07
28797;BME280;24974;54.444;18.560;2023-02-24T09:36:45;99751.59;;;7.05;48.51
28797;BME280;24974;54.444;18.560;2023-02-24T09:39:33;99741.16;;;7.74;47.21
28797;BME280;24974;54.444;18.560;2023-02-24T09:42:31;99731.25;;;7.56;47.90
28797;BME280;24974;54.444;18.560;2023-02-24T09:45:21;99735.47;;;7.62;47.71
28797;BME280;24974;54.444;18.560;2023-02-24T09:48:11;99735.94;;;7.64;47.91
28797;BME280;24974;54.444;18.560;2023-02-24T09:50:46;99728.47;;;8.18;47.38
28797;BME280;24974;54.444;18.560;2023-02-24T09:53:33;99720.03;;;7.97;46.89
28797;BME280;24974;54.444;18.560;2023-02-24T09:56:35;99729.03;;;7.67;47.76
28797;BME280;24974;54.444;18.560;2023-02-24T09:59:59;99723.53;;;7.89;48.02
28797;BME280;24974;54.444;18.560;2023-02-24T10:02:19;99717.00;;;7.76;47.80
28797;BME280;24974;54.444;18.560;2023-02-24T10:05:30;99710.38;;;8.57;45.80
28797;BME280;24974;54.444;18.560;2023-02-24T10:08:15;99710.72;;;8.07;47.31
28797;BME280;24974;54.444;18.560;2023-02-24T10:10:54;99710.28;;;8.22;47.67
28797;BME280;24974;54.444;18.560;2023-02-24T10:13:49;99695.44;;;8.72;46.06
28797;BME280;24974;54.444;18.560;2023-02-24T10:16:23;99690.41;;;8.56;46.07
28797;BME280;24974;54.444;18.560;2023-02-24T10:19:06;99695.78;;;7.73;48.22
28797;BME280;24974;54.444;18.560;2023-02-24T10:25:24;99682.53;;;8.98;45.55
28797;BME280;24974;54.444;18.560;2023-02-24T10:33:41;99660.72;;;8.32;47.58
28797;BME280;24974;54.444;18.560;2023-02-24T10:36:20;99653.94;;;8.30;47.22
28797;BME280;24974;54.444;18.560;2023-02-24T10:41:49;99643.47;;;9.36;45.28
28797;BME280;24974;54.444;18.560;2023-02-24T10:44:28;99642.84;;;9.21;44.92
28797;BME280;24974;54.444;18.560;2023-02-24T10:47:11;99634.50;;;10.03;43.34
28797;BME280;24974;54.444;18.560;2023-02-24T10:49:44;99649.66;;;9.07;44.65
28797;BME280;24974;54.444;18.560;2023-02-24T10:52:37;99644.13;;;8.29;46.55
28797;BME280;24974;54.444;18.560;2023-02-24T10:58:34;99641.94;;;8.48;46.18
28797;BME280;24974;54.444;18.560;2023-02-24T11:01:17;99627.44;;;8.56;45.59
28797;BME280;24974;54.444;18.560;2023-02-24T11:03:54;99622.28;;;8.46;46.67
28797;BME280;24974;54.444;18.560;2023-02-24T11:06:41;99615.06;;;8.50;46.79
28797;BME280;24974;54.444;18.560;2023-02-24T11:09:39;99610.91;;;7.47;48.21
28797;BME280;24974;54.444;18.560;2023-02-24T11:12:23;99603.84;;;7.55;48.48
28797;BME280;24974;54.444;18.560;2023-02-24T11:15:19;99589.56;;;8.50;46.87
28797;BME280;24974;54.444;18.560;2023-02-24T11:18:20;99581.88;;;8.52;46.22
28797;BME280;24974;54.444;18.560;2023-02-24T11:20:58;99594.19;;;9.10;45.13
28797;BME280;24974;54.444;18.560;2023-02-24T11:23:50;99586.94;;;7.53;48.27
28797;BME280;24974;54.444;18.560;2023-02-24T11:26:30;99575.56;;;8.68;46.41
28797;BME280;24974;54.444;18.560;2023-02-24T11:38:00;99561.06;;;8.68;46.09
28797;BME280;24974;54.444;18.560;2023-02-24T11:40:40;99567.41;;;7.85;48.21
28797;BME280;24974;54.444;18.560;2023-02-24T11:43:18;99552.31;;;9.01;45.71
28797;BME280;24974;54.444;18.560;2023-02-24T11:46:09;99548.84;;;8.39;46.21
28797;BME280;24974;54.444;18.560;2023-02-24T11:49:00;99547.94;;;9.08;45.28
28797;BME280;24974;54.444;18.560;2023-02-24T11:51:34;99546.22;;;8.08;47.26
28797;BME280;24974;54.444;18.560;2023-02-24T11:54:12;99541.94;;;7.59;48.18
28797;BME280;24974;54.444;18.560;2023-02-24T11:56:47;99536.03;;;7.83;47.38
28797;BME280;24974;54.444;18.560;2023-02-24T12:05:03;99530.25;;;8.88;45.13
28797;BME280;24974;54.444;18.560;2023-02-24T12:07:43;99527.72;;;8.75;45.97
28797;BME280;24974;54.444;18.560;2023-02-24T12:10:22;99506.94;;;8.13;46.78
28797;BME280;24974;54.444;18.560;2023-02-24T12:15:33;99513.47;;;7.60;47.97
28797;BME280;24974;54.444;18.560;2023-02-24T12:23:43;99504.38;;;7.99;47.14
28797;BME280;24974;54.444;18.560;2023-02-24T12:26:35;99508.25;;;8.59;45.80
28797;BME280;24974;54.444;18.560;2023-02-24T12:36:04;99484.09;;;8.44;46.40
28797;BME280;24974;54.444;18.560;2023-02-24T12:47:48;99492.28;;;7.83;46.45
28797;BME280;24974;54.444;18.560;2023-02-24T12:56:14;99455.81;;;8.78;44.29
28797;BME280;24974;54.444;18.560;2023-02-24T12:58:51;99457.50;;;9.08;44.21
28797;BME280;24974;54.444;18.560;2023-02-24T13:01:32;99452.66;;;8.67;44.45
28797;BME280;24974;54.444;18.560;2023-02-24T13:13:27;99434.22;;;8.85;44.00
28797;BME280;24974;54.444;18.560;2023-02-24T13:16:00;99439.50;;;8.08;45.63
28797;BME280;24974;54.444;18.560;2023-02-24T13:18:34;99439.31;;;8.95;43.52
28797;BME280;24974;54.444;18.560;2023-02-24T13:21:19;99438.66;;;8.25;44.58
28797;BME280;24974;54.444;18.560;2023-02-24T13:23:59;99430.69;;;9.43;42.47
28797;BME280;24974;54.444;18.560;2023-02-24T13:26:31;99424.56;;;9.38;42.51
28797;BME280;24974;54.444;18.560;2023-02-24T13:29:09;99426.31;;;7.84;45.22
28797;BME280;24974;54.444;18.560;2023-02-24T13:31:43;99420.38;;;9.11;43.33
28797;BME280;24974;54.444;18.560;2023-02-24T13:36:51;99413.31;;;8.72;43.52
28797;BME280;24974;54.444;18.560;2023-02-24T13:39:39;99406.84;;;9.06;42.94
28797;BME280;24974;54.444;18.560;2023-02-24T13:42:24;99400.16;;;9.24;42.05
28797;BME280;24974;54.444;18.560;2023-02-24T13:50:35;99394.78;;;9.07;42.38
28797;BME280;24974;54.444;18.560;2023-02-24T13:56:13;99395.44;;;9.33;41.87
28797;BME280;24974;54.444;18.560;2023-02-24T14:01:49;99386.50;;;8.86;43.04
28797;BME280;24974;54.444;18.560;2023-02-24T14:04:25;99388.84;;;8.58;43.39
28797;BME280;24974;54.444;18.560;2023-02-24T14:07:01;99399.22;;;8.44;43.50
28797;BME280;24974;54.444;18.560;2023-02-24T14:09:37;99383.31;;;8.20;44.15
28797;BME280;24974;54.444;18.560;2023-02-24T14:12:15;99387.16;;;8.36;43.66
28797;BME280;24974;54.444;18.560;2023-02-24T14:14:49;99384.56;;;8.39;43.69
28797;BME280;24974;54.444;18.560;2023-02-24T14:17:27;99378.75;;;8.88;42.69
28797;BME280;24974;54.444;18.560;2023-02-24T14:20:20;99366.84;;;8.46;43.57
28797;BME280;24974;54.444;18.560;2023-02-24T14:22:56;99365.63;;;8.08;44.59
28797;BME280;24974;54.444;18.560;2023-02-24T14:25:36;99365.81;;;8.67;43.44
28797;BME280;24974;54.444;18.560;2023-02-24T14:28:19;99356.75;;;8.76;43.13
28797;BME280;24974;54.444;18.560;2023-02-24T14:30:53;99359.56;;;8.58;43.37
28797;BME280;24974;54.444;18.560;2023-02-24T14:33:36;99360.28;;;8.21;44.04
28797;BME280;24974;54.444;18.560;2023-02-24T14:36:24;99356.53;;;8.34;44.84
28797;BME280;24974;54.444;18.560;2023-02-24T14:39:19;99354.19;;;8.06;44.68
28797;BME280;24974;54.444;18.560;2023-02-24T14:42:03;99346.53;;;7.48;46.01
28797;BME280;24974;54.444;18.560;2023-02-24T14:44:51;99345.72;;;8.55;43.51
28797;BME280;24974;54.444;18.560;2023-02-24T14:47:25;99342.63;;;7.92;44.80
28797;BME280;24974;54.444;18.560;2023-02-24T14:49:59;99349.69;;;8.10;44.46
28797;BME280;24974;54.444;18.560;2023-02-24T14:52:38;99336.59;;;8.72;43.66
28797;BME280;24974;54.444;18.560;2023-02-24T14:55:16;99333.31;;;7.76;45.44
28797;BME280;24974;54.444;18.560;2023-02-24T14:57:54;99349.06;;;7.96;44.96
28797;BME280;24974;54.444;18.560;2023-02-24T15:00:33;99331.09;;;8.42;44.41
28797;BME280;24974;54.444;18.560;2023-02-24T15:05:45;99319.56;;;8.19;45.09
28797;BME280;24974;54.444;18.560;2023-02-24T15:08:42;99299.38;;;8.41;44.99
28797;BME280;24974;54.444;18.560;2023-02-24T15:13:48;99305.03;;;7.46;46.69
28797;BME280;24974;54.444;18.560;2023-02-24T15:19:39;99297.13;;;7.88;46.50
28797;BME280;24974;54.444;18.560;2023-02-24T15:22:26;99290.03;;;8.72;44.57
28797;BME280;24974;54.444;18.560;2023-02-24T15:25:18;99292.84;;;7.26;47.54
28797;BME280;24974;54.444;18.560;2023-02-24T15:28:03;99294.41;;;7.79;47.07
28797;BME280;24974;54.444;18.560;2023-02-24T15:33:43;99273.03;;;6.94;49.11
28797;BME280;24974;54.444;18.560;2023-02-24T15:36:19;99258.75;;;7.49;48.59
28797;BME280;24974;54.444;18.560;2023-02-24T15:38:55;99255.22;;;8.51;46.05
28797;BME280;24974;54.444;18.560;2023-02-24T15:41:42;99262.38;;;7.79;47.91
28797;BME280;24974;54.444;18.560;2023-02-24T15:44:28;99252.78;;;6.87;49.36
28797;BME280;24974;54.444;18.560;2023-02-24T15:47:18;99245.59;;;7.08;49.92
28797;BME280;24974;54.444;18.560;2023-02-24T15:49:50;99255.09;;;6.36;51.68
28797;BME280;24974;54.444;18.560;2023-02-24T15:52:26;99245.41;;;7.05;50.26
28797;BME280;24974;54.444;18.560;2023-02-24T15:54:58;99240.59;;;7.10;50.27
28797;BME280;24974;54.444;18.560;2023-02-24T15:57:31;99233.53;;;7.00;50.65
28797;BME280;24974;54.444;18.560;2023-02-24T16:00:04;99236.22;;;7.52;49.66
28797;BME280;24974;54.444;18.560;2023-02-24T16:02:44;99234.63;;;7.34;50.56
28797;BME280;24974;54.444;18.560;2023-02-24T16:05:15;99236.09;;;7.32;50.21
28797;BME280;24974;54.444;18.560;2023-02-24T16:07:46;99227.72;;;7.37;50.24
28797;BME280;24974;54.444;18.560;2023-02-24T16:10:21;99228.22;;;7.04;51.06
28797;BME280;24974;54.444;18.560;2023-02-24T16:12:54;99220.69;;;6.92;51.24
28797;BME280;24974;54.444;18.560;2023-02-24T16:15:29;99227.59;;;7.07;50.61
28797;BME280;24974;54.444;18.560;2023-02-24T16:18:00;99223.22;;;6.71;51.74
28797;BME280;24974;54.444;18.560;2023-02-24T16:20:32;99217.13;;;7.09;51.44
28797;BME280;24974;54.444;18.560;2023-02-24T16:23:05;99214.41;;;6.92;51.87
28797;BME280;24974;54.444;18.560;2023-02-24T16:25:41;99212.00;;;6.90;51.84
28797;BME280;24974;54.444;18.560;2023-02-24T16:28:17;99215.34;;;6.70;52.34
28797;BME280;24974;54.444;18.560;2023-02-24T16:30:49;99213.00;;;6.20;53.61
28797;BME280;24974;54.444;18.560;2023-02-24T16:33:20;99208.16;;;6.91;52.25
28797;BME280;24974;54.444;18.560;2023-02-24T16:35:52;99209.09;;;6.95;51.95
28797;BME280;24974;54.444;18.560;2023-02-24T16:38:23;99198.63;;;6.54;53.09
28797;BME280;24974;54.444;18.560;2023-02-24T16:40:57;99212.41;;;6.49;54.26
28797;BME280;24974;54.444;18.560;2023-02-24T16:43:28;99195.28;;;6.66;54.01
28797;BME280;24974;54.444;18.560;2023-02-24T16:46:01;99196.56;;;6.68;55.02
28797;BME280;24974;54.444;18.560;2023-02-24T16:48:34;99187.56;;;7.11;53.53
28797;BME280;24974;54.444;18.560;2023-02-24T16:51:07;99188.06;;;6.96;53.89
28797;BME280;24974;54.444;18.560;2023-02-24T16:53:38;99187.41;;;7.16;53.54
28797;BME280;24974;54.444;18.560;2023-02-24T16:56:10;99181.44;;;6.54;55.10
28797;BME280;24974;54.444;18.560;2023-02-24T16:58:42;99175.31;;;6.31;55.99
28797;BME280;24974;54.444;18.560;2023-02-24T17:01:18;99171.81;;;6.48;55.74
28797;BME280;24974;54.444;18.560;2023-02-24T17:03:50;99159.72;;;6.14;56.58
28797;BME280;24974;54.444;18.560;2023-02-24T17:06:21;99159.63;;;6.54;55.90
28797;BME280;24974;54.444;18.560;2023-02-24T17:08:53;99150.16;;;6.42;56.10
28797;BME280;24974;54.444;18.560;2023-02-24T17:11:25;99158.03;;;6.70;55.71
28797;BME280;24974;54.444;18.560;2023-02-24T17:13:56;99151.25;;;7.02;54.83
28797;BME280;24974;54.444;18.560;2023-02-24T17:16:27;99162.53;;;6.75;55.49
28797;BME280;24974;54.444;18.560;2023-02-24T17:18:58;99157.38;;;6.73;54.94
28797;BME280;24974;54.444;18.560;2023-02-24T17:21:29;99157.88;;;6.84;55.50
28797;BME280;24974;54.444;18.560;2023-02-24T17:23:59;99152.69;;;6.48;56.10
28797;BME280;24974;54.444;18.560;2023-02-24T17:26:30;99161.97;;;6.21;57.14
28797;BME280;24974;54.444;18.560;2023-02-24T17:29:02;99153.47;;;6.31;56.36
28797;BME280;24974;54.444;18.560;2023-02-24T17:31:33;99151.28;;;6.85;55.22
28797;BME280;24974;54.444;18.560;2023-02-24T17:34:04;99146.59;;;6.94;54.65
28797;BME280;24974;54.444;18.560;2023-02-24T17:36:35;99148.03;;;6.31;56.13
28797;BME280;24974;54.444;18.560;2023-02-24T17:39:05;99144.34;;;6.18;57.32
28797;BME280;24974;54.444;18.560;2023-02-24T17:41:36;99143.22;;;6.88;55.55
28797;BME280;24974;54.444;18.560;2023-02-24T17:44:07;99144.03;;;6.45;56.15
28797;BME280;24974;54.444;18.560;2023-02-24T17:46:38;99138.09;;;6.69;55.53
28797;BME280;24974;54.444;18.560;2023-02-24T17:49:08;99131.06;;;6.51;56.47
28797;BME280;24974;54.444;18.560;2023-02-24T17:51:39;99129.41;;;7.11;54.56
28797;BME280;24974;54.444;18.560;2023-02-24T17:54:10;99119.47;;;7.06;55.29
28797;BME280;24974;54.444;18.560;2023-02-24T17:56:41;99121.38;;;6.88;56.12
28797;BME280;24974;54.444;18.560;2023-02-24T17:59:12;99115.94;;;7.52;53.45
28797;BME280;24974;54.444;18.560;2023-02-24T18:01:42;99114.34;;;6.70;56.48
28797;BME280;24974;54.444;18.560;2023-02-24T18:04:13;99117.06;;;6.70;56.40
28797;BME280;24974;54.444;18.560;2023-02-24T18:06:44;99111.41;;;7.01;55.74
28797;BME280;24974;54.444;18.560;2023-02-24T18:09:15;99114.66;;;6.86;56.51
28797;BME280;24974;54.444;18.560;2023-02-24T18:11:46;99109.50;;;6.24;57.72
28797;BME280;24974;54.444;18.560;2023-02-24T18:14:17;99098.13;;;6.39;57.90
28797;BME280;24974;54.444;18.560;2023-02-24T18:16:48;99105.19;;;6.83;57.02
28797;BME280;24974;54.444;18.560;2023-02-24T18:19:19;99097.16;;;6.52;57.04
28797;BME280;24974;54.444;18.560;2023-02-24T18:21:50;99094.78;;;6.42;58.57
28797;BME280;24974;54.444;18.560;2023-02-24T18:24:20;99098.13;;;6.65;57.57
28797;BME280;24974;54.444;18.560;2023-02-24T18:26:52;99086.06;;;6.92;57.41
28797;BME280;24974;54.444;18.560;2023-02-24T18:29:23;99090.72;;;6.65;57.74
28797;BME280;24974;54.444;18.560;2023-02-24T18:31:54;99091.84;;;6.56;58.21
28797;BME280;24974;54.444;18.560;2023-02-24T18:34:24;99095.69;;;6.72;58.06
28797;BME280;24974;54.444;18.560;2023-02-24T18:36:55;99094.91;;;6.28;59.37
28797;BME280;24974;54.444;18.560;2023-02-24T18:39:26;99095.38;;;6.39;59.19
28797;BME280;24974;54.444;18.560;2023-02-24T18:41:59;99091.19;;;6.15;60.31
28797;BME280;24974;54.444;18.560;2023-02-24T18:44:29;99084.75;;;6.89;57.79
28797;BME280;24974;54.444;18.560;2023-02-24T18:47:00;99083.88;;;5.85;60.88
28797;BME280;24974;54.444;18.560;2023-02-24T18:49:31;99068.75;;;6.62;58.57
28797;BME280;24974;54.444;18.560;2023-02-24T18:52:02;99075.34;;;6.35;59.18
28797;BME280;24974;54.444;18.560;2023-02-24T18:54:34;99067.63;;;6.63;58.90
28797;BME280;24974;54.444;18.560;2023-02-24T18:57:05;99072.94;;;6.51;59.18
28797;BME280;24974;54.444;18.560;2023-02-24T18:59:36;99062.81;;;6.51;59.57
28797;BME280;24974;54.444;18.560;2023-02-24T19:02:08;99048.22;;;6.30;59.60
28797;BME280;24974;54.444;18.560;2023-02-24T19:04:39;99060.25;;;6.20;60.10
28797;BME280;24974;54.444;18.560;2023-02-24T19:07:11;99053.34;;;6.40;59.89
28797;BME280;24974;54.444;18.560;2023-02-24T19:09:41;99050.28;;;6.67;59.46
28797;BME280;24974;54.444;18.560;2023-02-24T19:12:12;99046.25;;;6.56;59.71
28797;BME280;24974;54.444;18.560;2023-02-24T19:14:44;99046.13;;;6.44;60.33
28797;BME280;24974;54.444;18.560;2023-02-24T19:17:15;99041.44;;;6.01;61.32
28797;BME280;24974;54.444;18.560;2023-02-24T19:19:46;99040.50;;;6.40;60.39
28797;BME280;24974;54.444;18.560;2023-02-24T19:22:17;99041.00;;;6.34;60.33
28797;BME280;24974;54.444;18.560;2023-02-24T19:24:47;99037.38;;;5.73;62.17
28797;BME280;24974;54.444;18.560;2023-02-24T19:27:18;99031.00;;;5.86;61.57
28797;BME280;24974;54.444;18.560;2023-02-24T19:29:49;99027.66;;;5.98;61.38
28797;BME280;24974;54.444;18.560;2023-02-24T19:32:23;99017.88;;;6.31;60.29
28797;BME280;24974;54.444;18.560;2023-02-24T19:34:54;99023.53;;;5.52;63.10
28797;BME280;24974;54.444;18.560;2023-02-24T19:37:25;99018.34;;;5.99;61.96
28797;BME280;24974;54.444;18.560;2023-02-24T19:39:56;99018.81;;;5.35;63.34
28797;BME280;24974;54.444;18.560;2023-02-24T19:42:27;99014.34;;;6.39;61.00
28797;BME280;24974;54.444;18.560;2023-02-24T19:44:57;98998.72;;;6.57;59.65
28797;BME280;24974;54.444;18.560;2023-02-24T19:47:28;99011.28;;;6.24;60.77
28797;BME280;24974;54.444;18.560;2023-02-24T19:49:59;99009.66;;;6.49;60.59
28797;BME280;24974;54.444;18.560;2023-02-24T19:52:30;98995.41;;;5.91;61.86
28797;BME280;24974;54.444;18.560;2023-02-24T19:55:01;99013.69;;;6.08;61.87
28797;BME280;24974;54.444;18.560;2023-02-24T19:57:31;98998.13;;;6.17;61.50
28797;BME280;24974;54.444;18.560;2023-02-24T20:00:04;98986.72;;;5.72;62.92
28797;BME280;24974;54.444;18.560;2023-02-24T20:02:42;98991.22;;;6.45;60.92
28797;BME280;24974;54.444;18.560;2023-02-24T20:05:13;98992.69;;;6.26;61.55
28797;BME280;24974;54.444;18.560;2023-02-24T20:07:45;98990.13;;;6.29;61.76
28797;BME280;24974;54.444;18.560;2023-02-24T20:10:16;98986.09;;;6.09;62.65
28797;BME280;24974;54.444;18.560;2023-02-24T20:12:47;98984.66;;;5.86;63.07
28797;BME280;24974;54.444;18.560;2023-02-24T20:15:18;98992.72;;;5.43;64.16
28797;BME280;24974;54.444;18.560;2023-02-24T20:17:50;98975.69;;;6.29;61.90
28797;BME280;24974;54.444;18.560;2023-02-24T20:20:20;98973.88;;;5.89;63.03
28797;BME280;24974;54.444;18.560;2023-02-24T20:22:51;98977.75;;;5.80;63.70
28797;BME280;24974;54.444;18.560;2023-02-24T20:25:22;98982.72;;;5.86;63.56